createdAt,value
2023-04-20T00:04:05.975Z,100690.77
2023-04-20T00:09:09.802Z,100692.41
2023-04-20T00:14:12.894Z,100682.41
2023-04-20T00:19:16.437Z,100682.02
2023-04-20T00:24:20.339Z,100678.63
2023-04-20T00:29:23.802Z,100674.54
2023-04-20T00:34:27.074Z,100679.06
2023-04-20T00:39:30.204Z,100678.25
2023-04-20T00:44:33.957Z,100681.06
2023-04-20T00:49:40.194Z,100682.66
2023-04-20T00:54:43.594Z,100674.59
2023-04-20T00:59:46.818Z,100676.12
2023-04-20T01:04:59.908Z,100679.33
2023-04-20T01:10:09.699Z,100678.54
2023-04-20T01:15:26.410Z,100684.52
2023-04-20T01:20:29.883Z,100679.57
2023-04-20T01:25:33.248Z,100677.57
2023-04-20T01:30:46.400Z,100679.19
2023-04-20T01:35:49.818Z,100672.46
2023-04-20T01:40:54.473Z,100670.66
2023-04-20T01:46:26.034Z,100667.30
2023-04-20T01:51:29.555Z,100672.13
2023-04-20T01:56:41.640Z,100673.02
2023-04-20T02:01:45.146Z,100669.04
2023-04-20T02:07:16.740Z,100674.25
2023-04-20T02:12:20.650Z,100677.90
2023-04-20T02:17:26.684Z,100674.73
2023-04-20T02:22:30.056Z,100680.11
2023-04-20T02:27:46.768Z,100676.30
2023-04-20T02:32:50.063Z,100677.02
2023-04-20T02:37:53.969Z,100680.89
2023-04-20T02:42:59.554Z,100679.35
2023-04-20T02:48:03.970Z,100681.29
2023-04-20T02:53:07.874Z,100679.30
2023-04-20T02:58:15.477Z,100684.45
2023-04-20T03:03:37.595Z,100686.59
2023-04-20T03:08:51.271Z,100684.58
2023-04-20T03:14:27.094Z,100683.89
2023-04-20T03:19:51.592Z,100684.96
2023-04-20T03:25:06.638Z,100691.60
2023-04-20T03:30:33.131Z,100694.21
2023-04-20T03:35:59.881Z,100686.77
2023-04-20T03:41:10.935Z,100688.34
2023-04-20T03:46:23.982Z,100695.27
2023-04-20T03:51:27.309Z,100697.17
2023-04-20T03:56:32.860Z,100696.10
2023-04-20T04:01:39.144Z,100698.55
2023-04-20T04:06:52.245Z,100696.46
2023-04-20T04:11:55.863Z,100699.25
2023-04-20T04:17:00.488Z,100703.38
2023-04-20T04:22:04.439Z,100718.64
2023-04-20T04:27:11.982Z,100717.33
2023-04-20T04:37:43.248Z,100727.34
2023-04-20T04:42:48.386Z,100728.59
2023-04-20T04:47:54.116Z,100727.92
2023-04-20T04:52:57.722Z,100733.69
2023-04-20T04:58:01.810Z,100731.48
2023-04-20T05:03:08.192Z,100731.88
2023-04-20T05:08:12.357Z,100735.52
2023-04-20T05:13:15.903Z,100736.96
2023-04-20T05:18:19.284Z,100743.41
2023-04-20T05:23:22.404Z,100748.34
2023-04-20T05:28:28.027Z,100750.85
2023-04-20T05:33:31.405Z,100756.58
2023-04-20T05:38:34.613Z,100764.39
2023-04-20T05:43:37.738Z,100767.30
2023-04-20T05:48:43.419Z,100771.67
2023-04-20T05:53:46.821Z,100780.58
2023-04-20T05:58:50.249Z,100774.95
2023-04-20T06:03:53.521Z,100777.79
2023-04-20T06:08:58.264Z,100785.35
2023-04-20T06:14:01.494Z,100789.83
2023-04-20T06:19:12.190Z,100797.14
2023-04-20T06:24:15.549Z,100804.67
2023-04-20T06:29:19.234Z,100803.48
2023-04-20T06:34:22.591Z,100801.99
2023-04-20T06:39:28.839Z,100804.52
2023-04-20T06:44:32.377Z,100797.48
2023-04-20T06:49:37.741Z,100797.20
2023-04-20T06:54:40.896Z,100796.46
2023-04-20T06:59:44.136Z,100799.36
2023-04-20T07:04:47.598Z,100803.29
2023-04-20T07:09:50.946Z,100803.70
2023-04-20T07:14:55.027Z,100805.96
2023-04-20T07:19:59.526Z,100805.30
2023-04-20T07:25:07.555Z,100802.34
2023-04-20T07:30:12.187Z,100802.41
2023-04-20T07:35:25.903Z,100807.35
2023-04-20T07:40:29.172Z,100805.85
2023-04-20T07:45:42.827Z,100806.64
2023-04-20T07:50:48.608Z,100804.33
2023-04-20T07:55:51.682Z,100807.87
2023-04-20T08:00:54.753Z,100805.52
2023-04-20T08:06:01.057Z,100804.59
2023-04-20T08:11:04.666Z,100802.08
2023-04-20T08:16:10.698Z,100794.95
2023-04-20T08:21:14.695Z,100795.63
2023-04-20T08:26:18.730Z,100795.52
2023-04-20T08:31:22.610Z,100796.70
2023-04-20T08:36:28.140Z,100795.66
2023-04-20T08:41:31.421Z,100797.56
2023-04-20T08:46:35.401Z,100792.33
2023-04-20T08:51:40.196Z,100793.44
2023-04-20T08:56:45.841Z,100796.06
2023-04-20T09:01:49.054Z,100796.01
2023-04-20T09:06:54.422Z,100792.45
2023-04-20T09:12:07.535Z,100784.58
2023-04-20T09:17:14.768Z,100787.77
2023-04-20T09:22:18.127Z,100796.74
2023-04-20T09:27:23.190Z,100789.16
2023-04-20T09:32:28.848Z,100789.00
2023-04-20T09:37:32.387Z,100795.14
2023-04-20T09:42:39.774Z,100794.55
2023-04-20T09:47:44.671Z,100797.55
2023-04-20T09:52:49.585Z,100797.17
2023-04-20T09:57:54.309Z,100792.83
2023-04-20T10:03:00.640Z,100786.39
2023-04-20T10:08:06.401Z,100788.89
2023-04-20T10:13:09.572Z,100779.94
2023-04-20T10:18:24.742Z,100780.52
2023-04-20T10:23:28.106Z,100779.73
2023-04-20T10:28:41.849Z,100777.52
2023-04-20T10:33:56.237Z,100779.03
2023-04-20T10:39:00.675Z,100766.30
2023-04-20T10:44:10.410Z,100761.80
2023-04-20T10:49:13.886Z,100765.19
2023-04-20T10:54:18.586Z,100762.30
2023-04-20T10:59:23.919Z,100760.70
2023-04-20T11:04:34.520Z,100758.55
2023-04-20T11:09:43.060Z,100754.15
2023-04-20T11:14:58.266Z,100763.55
2023-04-20T11:20:19.679Z,100761.18
2023-04-20T11:25:22.976Z,100756.33
2023-04-20T11:30:26.196Z,100760.09
2023-04-20T11:35:37.207Z,100751.40
2023-04-20T11:40:40.552Z,100749.42
2023-04-20T11:45:43.629Z,100748.20
2023-04-20T11:50:46.833Z,100742.98
2023-04-20T11:55:49.945Z,100742.52
2023-04-20T12:00:53.053Z,100736.10
2023-04-20T12:05:56.316Z,100736.92
2023-04-20T12:10:59.443Z,100736.39
2023-04-20T12:16:02.653Z,100730.89
2023-04-20T12:21:05.938Z,100724.93
2023-04-20T12:26:09.518Z,100730.04
2023-04-20T12:31:12.924Z,100730.10
2023-04-20T12:36:19.140Z,100726.17
2023-04-20T12:41:23.733Z,100726.65
2023-04-20T12:46:27.029Z,100720.21
2023-04-20T12:51:30.355Z,100722.11
2023-04-20T12:56:33.453Z,100718.53
2023-04-20T13:01:36.583Z,100715.15
2023-04-20T13:06:39.788Z,100709.64
2023-04-20T13:11:42.969Z,100698.06
2023-04-20T13:16:46.167Z,100688.47
2023-04-20T13:21:49.522Z,100690.86
2023-04-20T13:26:58.478Z,100691.11
2023-04-20T13:32:01.661Z,100693.87
2023-04-20T13:37:04.914Z,100683.92
2023-04-20T13:42:08.032Z,100679.05
2023-04-20T13:47:11.452Z,100684.27
2023-04-20T13:52:14.642Z,100686.75
2023-04-20T13:57:17.868Z,100690.41
2023-04-20T14:02:21.667Z,100688.48
2023-04-20T14:07:25.159Z,100685.23
2023-04-20T14:12:29.069Z,100686.58
2023-04-20T14:17:32.449Z,100684.25
2023-04-20T14:22:37.010Z,100683.13
2023-04-20T14:27:40.240Z,100680.48
2023-04-20T14:32:54.328Z,100683.15
2023-04-20T14:37:57.456Z,100682.96
2023-04-20T14:43:00.732Z,100680.89
2023-04-20T14:48:04.121Z,100682.02
2023-04-20T14:53:07.632Z,100677.11
2023-04-20T14:58:11.078Z,100673.30
2023-04-20T15:03:14.337Z,100669.86
2023-04-20T15:08:18.050Z,100673.29
2023-04-20T15:13:21.179Z,100677.39
2023-04-20T15:18:24.756Z,100679.05
2023-04-20T15:23:27.846Z,100678.01
2023-04-20T15:28:30.948Z,100672.29
2023-04-20T15:33:34.515Z,100673.08
2023-04-20T15:38:37.788Z,100669.99
2023-04-20T15:43:40.997Z,100670.85
2023-04-20T15:48:45.084Z,100674.27
2023-04-20T15:53:50.879Z,100673.83
2023-04-20T15:58:54.139Z,100667.36
2023-04-20T16:03:57.394Z,100671.30
2023-04-20T16:09:01.344Z,100669.08
2023-04-20T16:14:04.546Z,100662.36
2023-04-20T16:19:07.597Z,100664.02
2023-04-20T16:24:10.768Z,100660.06
2023-04-20T16:29:13.850Z,100665.81
2023-04-20T16:34:17.352Z,100674.52
2023-04-20T16:39:20.898Z,100678.80
2023-04-20T16:44:24.344Z,100679.46
2023-04-20T16:49:28.342Z,100682.72
2023-04-20T16:54:31.404Z,100693.11
2023-04-20T16:59:34.828Z,100695.90
2023-04-20T17:04:37.869Z,100694.67
2023-04-20T17:09:41.046Z,100701.66
2023-04-20T17:14:44.248Z,100703.29
2023-04-20T17:19:47.414Z,100704.74
2023-04-20T17:24:50.718Z,100711.16
2023-04-20T17:29:56.081Z,100713.58
2023-04-20T17:34:59.324Z,100718.02
2023-04-20T17:40:05.299Z,100722.00
2023-04-20T17:45:08.791Z,100722.14
2023-04-20T17:50:13.468Z,100724.58
2023-04-20T17:55:16.644Z,100730.23
2023-04-20T18:00:20.651Z,100729.20
2023-04-20T18:05:23.961Z,100730.41
2023-04-20T18:10:28.284Z,100735.20
2023-04-20T18:15:34.935Z,100733.23
2023-04-20T18:20:38.548Z,100737.17
2023-04-20T18:25:42.859Z,100743.35
2023-04-20T18:30:46.461Z,100747.45
2023-04-20T18:35:49.652Z,100744.55
2023-04-20T18:40:55.640Z,100747.63
2023-04-20T18:45:58.792Z,100746.13
2023-04-20T18:51:12.394Z,100749.45
2023-04-20T18:56:16.006Z,100750.98
2023-04-20T19:01:19.706Z,100757.45
2023-04-20T19:06:35.070Z,100759.48
2023-04-20T19:11:38.625Z,100760.33
2023-04-20T19:16:42.115Z,100763.74
2023-04-20T19:21:45.740Z,100767.27
2023-04-20T19:26:48.873Z,100764.41
2023-04-20T19:31:52.431Z,100765.70
2023-04-20T19:36:55.649Z,100767.27
2023-04-20T19:41:59.257Z,100764.77
2023-04-20T19:47:05.238Z,100765.23
2023-04-20T19:52:08.639Z,100764.27
2023-04-20T19:57:50.039Z,100768.37
2023-04-20T20:02:53.537Z,100774.79
2023-04-20T20:07:56.853Z,100775.51
2023-04-20T20:13:00.287Z,100773.69
2023-04-20T20:18:04.446Z,100775.02
2023-04-20T20:23:08.134Z,100775.42
2023-04-20T20:28:11.510Z,100773.73
2023-04-20T20:33:17.967Z,100771.17
2023-04-20T20:38:31.169Z,100770.73
2023-04-20T20:43:34.844Z,100774.19
2023-04-20T20:48:38.103Z,100775.99
2023-04-20T20:53:41.234Z,100777.95
2023-04-20T20:58:54.404Z,100775.73
2023-04-20T21:04:00.590Z,100780.86
2023-04-20T21:09:24.048Z,100779.06
2023-04-20T21:14:27.592Z,100780.45
2023-04-20T21:19:30.974Z,100780.79
2023-04-20T21:24:37.106Z,100779.30
2023-04-20T21:29:42.660Z,100781.08
2023-04-20T21:34:54.989Z,100779.66
2023-04-20T21:39:58.382Z,100778.84
2023-04-20T21:45:10.104Z,100776.66
2023-04-20T21:50:13.572Z,100778.27
2023-04-20T21:55:24.552Z,100773.78
2023-04-20T22:00:28.324Z,100775.91
2023-04-20T22:05:31.846Z,100774.47
2023-04-20T22:10:35.675Z,100774.30
2023-04-20T22:15:39.069Z,100777.27
2023-04-20T22:21:01.464Z,100775.68
2023-04-20T22:26:04.790Z,100780.57
2023-04-20T22:31:08.195Z,100782.38
2023-04-20T22:36:14.701Z,100782.83
2023-04-20T22:41:18.495Z,100786.28
2023-04-20T22:46:24.043Z,100787.71
2023-04-20T22:51:41.760Z,100792.88
2023-04-20T22:56:47.752Z,100789.73
2023-04-20T23:01:51.199Z,100792.89
2023-04-20T23:06:57.871Z,100786.73
2023-04-20T23:12:12.404Z,100789.16
2023-04-20T23:17:57.478Z,100782.09
2023-04-20T23:23:01.127Z,100787.94
2023-04-20T23:28:05.001Z,100786.14
2023-04-20T23:33:08.844Z,100791.01
2023-04-20T23:38:12.685Z,100784.73
2023-04-20T23:43:18.979Z,100783.40
2023-04-20T23:48:22.453Z,100782.45
2023-04-20T23:53:46.446Z,100784.58
2023-04-20T23:58:52.855Z,100780.08
